Time;durP1;ratioP1;P1;durP2;ratioP2;P2;SDS_P1;SDS_P2;PMS_P1;PMS_P2;Temp;Humidity;BMP_temperature;BMP_pressure;BME280_temperature;BME280_humidity;BME280_pressure;Samples;Min_cycle;Max_cycle;Signal;HPM_P1;HPM_P2
2021/12/09 00:00:43;;;;;;;79.60;31.52;;;;;;;;;;5035299;28;20384;-40
2021/12/09 00:03:09;;;;;;;87.28;34.55;;;;;;;;;;5035001;28;20423;-39
2021/12/09 00:05:36;;;;;;;83.85;33.17;;;;;;;;;;5035001;28;20151;-40
2021/12/09 00:08:02;;;;;;;84.25;32.83;;;;;;;;;;5034713;28;20092;-40
2021/12/09 00:10:27;;;;;;;84.20;34.88;;;;;;;;;;5034432;28;20036;-40
2021/12/09 00:12:53;;;;;;;84.15;34.28;;;;;;;;;;5034866;28;20025;-40
2021/12/09 00:15:18;;;;;;;85.13;34.05;;;;;;;;;;5034289;28;20095;-40
2021/12/09 00:17:44;;;;;;;79.78;33.03;;;;;;;;;;5034786;28;20021;-39
2021/12/09 00:20:10;;;;;;;79.57;33.30;;;;;;;;;;5034586;28;20112;-41
2021/12/09 00:22:36;;;;;;;83.47;33.45;;;;;;;;;;5034671;28;20083;-39
2021/12/09 00:25:01;;;;;;;78.50;33.10;;;;;;;;;;5034564;28;20017;-40
2021/12/09 00:27:26;;;;;;;85.68;35.03;;;;;;;;;;5034510;28;20389;-39
2021/12/09 00:29:52;;;;;;;79.15;34.28;;;;;;;;;;5034909;28;20087;-40
2021/12/09 00:32:18;;;;;;;81.70;35.80;;;;;;;;;;5032888;28;20018;-41
2021/12/09 00:34:47;;;;;;;86.13;34.47;;;;;;;;;;5034487;28;20048;-40
2021/12/09 00:37:32;;;;;;;;;;;;;;;;;;5034921;28;20037;-39
2021/12/09 00:39:57;;;;;;;78.25;30.70;;;;;;;;;;5034215;28;20364;-40
2021/12/09 00:42:24;;;;;;;85.78;33.58;;;;;;;;;;5034543;28;20024;-40
2021/12/09 00:44:50;;;;;;;85.63;33.08;;;;;;;;;;5033984;28;20521;-40
2021/12/09 00:47:15;;;;;;;85.55;33.13;;;;;;;;;;5034616;28;20071;-40
2021/12/09 00:49:41;;;;;;;77.43;31.13;;;;;;;;;;5034151;28;20021;-39
2021/12/09 00:52:06;;;;;;;89.82;32.45;;;;;;;;;;5034166;28;20021;-40
2021/12/09 00:54:32;;;;;;;82.43;32.92;;;;;;;;;;5033592;28;20022;-40
2021/12/09 00:56:57;;;;;;;88.30;34.75;;;;;;;;;;5033883;28;20021;-39
2021/12/09 00:59:23;;;;;;;90.18;34.00;;;;;;;;;;5034154;28;20555;-39
2021/12/09 01:01:48;;;;;;;87.45;31.95;;;;;;;;;;5034118;28;20067;-40
2021/12/09 01:04:13;;;;;;;85.97;32.20;;;;;;;;;;5033784;28;20079;-40
2021/12/09 01:06:39;;;;;;;89.57;32.50;;;;;;;;;;5033571;28;20021;-40
2021/12/09 01:09:04;;;;;;;81.32;30.73;;;;;;;;;;5033205;28;20018;-39
2021/12/09 01:11:30;;;;;;;81.50;32.53;;;;;;;;;;5033911;28;20021;-40
2021/12/09 01:13:55;;;;;;;92.03;33.92;;;;;;;;;;5032649;28;20496;-39
2021/12/09 01:16:20;;;;;;;101.68;37.25;;;;;;;;;;5033569;28;20480;-40
2021/12/09 01:18:46;;;;;;;90.63;34.15;;;;;;;;;;5033193;28;20025;-40
2021/12/09 01:21:11;;;;;;;93.82;32.53;;;;;;;;;;5033640;28;20036;-40
2021/12/09 01:23:37;;;;;;;96.93;32.13;;;;;;;;;;5033165;28;20079;-40
2021/12/09 01:26:04;;;;;;;102.30;36.67;;;;;;;;;;5032580;28;20029;-39
2021/12/09 01:28:36;;;;;;;97.55;32.42;;;;;;;;;;5033579;28;20056;-39
2021/12/09 01:31:04;;;;;;;91.35;31.48;;;;;;;;;;5033202;28;20039;-39
2021/12/09 01:33:30;;;;;;;98.07;35.17;;;;;;;;;;5033393;28;20099;-39
2021/12/09 01:35:56;;;;;;;97.50;32.03;;;;;;;;;;5033485;28;20473;-39
2021/12/09 01:38:23;;;;;;;107.10;32.67;;;;;;;;;;5031915;28;20049;-39
2021/12/09 01:40:48;;;;;;;105.82;34.30;;;;;;;;;;5033421;28;20468;-39
2021/12/09 01:43:14;;;;;;;95.80;30.08;;;;;;;;;;5032844;28;20029;-40
2021/12/09 01:45:40;;;;;;;102.43;30.88;;;;;;;;;;5033172;28;20023;-40
2021/12/09 01:48:05;;;;;;;97.43;30.23;;;;;;;;;;5033157;28;20060;-40
2021/12/09 01:50:32;;;;;;;95.05;30.00;;;;;;;;;;5033443;28;20022;-39
2021/12/09 01:52:58;;;;;;;85.82;28.00;;;;;;;;;;5033203;28;20056;-39
2021/12/09 01:55:23;;;;;;;94.68;29.92;;;;;;;;;;5032735;28;20052;-39
2021/12/09 01:57:50;;;;;;;87.38;28.63;;;;;;;;;;5032929;28;20129;-39
2021/12/09 02:00:17;;;;;;;81.97;26.67;;;;;;;;;;5033104;28;20124;-39
2021/12/09 02:02:43;;;;;;;94.30;28.98;;;;;;;;;;5032768;28;20148;-40
2021/12/09 02:05:10;;;;;;;89.43;28.15;;;;;;;;;;5033158;28;20480;-39
2021/12/09 02:07:35;;;;;;;104.55;27.73;;;;;;;;;;5032445;28;20048;-39
2021/12/09 02:10:01;;;;;;;79.38;23.88;;;;;;;;;;5032934;28;20025;-40
2021/12/09 02:12:26;;;;;;;91.13;25.77;;;;;;;;;;5032948;28;20021;-39
2021/12/09 02:14:53;;;;;;;82.25;26.30;;;;;;;;;;5032958;28;20047;-39
2021/12/09 02:17:19;;;;;;;96.20;29.83;;;;;;;;;;5032539;28;20571;-40
2021/12/09 02:19:45;;;;;;;86.97;27.15;;;;;;;;;;5032444;28;20112;-40
2021/12/09 02:22:12;;;;;;;89.75;26.02;;;;;;;;;;5032671;28;20059;-40
2021/12/09 02:24:38;;;;;;;85.32;24.70;;;;;;;;;;5032870;28;20877;-39
2021/12/09 02:27:03;;;;;;;77.32;24.65;;;;;;;;;;5033081;28;20121;-39
2021/12/09 02:29:29;;;;;;;83.70;23.75;;;;;;;;;;5032710;28;20028;-40
2021/12/09 02:31:57;;;;;;;72.63;22.35;;;;;;;;;;5032320;28;20377;-40
2021/12/09 02:34:23;;;;;;;72.82;22.70;;;;;;;;;;5032656;28;20416;-39
2021/12/09 02:36:50;;;;;;;77.05;23.70;;;;;;;;;;5032372;28;20029;-40
2021/12/09 02:39:16;;;;;;;75.18;23.50;;;;;;;;;;5036471;28;20112;-40
2021/12/09 02:41:42;;;;;;;81.47;25.67;;;;;;;;;;5036744;28;20060;-39
2021/12/09 02:44:08;;;;;;;75.43;22.02;;;;;;;;;;5036193;28;20041;-39
2021/12/09 02:46:37;;;;;;;66.13;21.13;;;;;;;;;;5036644;28;20499;-39
2021/12/09 02:49:07;;;;;;;79.10;23.67;;;;;;;;;;5036553;28;20033;-39
2021/12/09 02:51:32;;;;;;;69.63;22.52;;;;;;;;;;5036442;28;20083;-40
2021/12/09 02:53:57;;;;;;;85.35;24.88;;;;;;;;;;5036556;28;20025;-40
2021/12/09 02:56:23;;;;;;;80.43;23.38;;;;;;;;;;5036090;28;20049;-39
2021/12/09 02:58:48;;;;;;;67.05;21.67;;;;;;;;;;5036060;28;20052;-40
2021/12/09 03:01:16;;;;;;;75.60;24.50;;;;;;;;;;5036164;28;20026;-40
2021/12/09 03:03:49;;;;;;;76.03;24.02;;;;;;;;;;5035894;28;20116;-40
2021/12/09 03:06:14;;;;;;;65.22;22.55;;;;;;;;;;5036170;28;20026;-39
2021/12/09 03:08:41;;;;;;;78.78;24.15;;;;;;;;;;5035730;28;20036;-40
2021/12/09 03:11:07;;;;;;;62.15;22.27;;;;;;;;;;5035991;28;20021;-40
2021/12/09 03:13:33;;;;;;;70.82;23.27;;;;;;;;;;5036232;28;20334;-39
2021/12/09 03:15:59;;;;;;;79.57;24.25;;;;;;;;;;5036100;28;20374;-39
2021/12/09 03:18:24;;;;;;;68.90;20.88;;;;;;;;;;5035936;28;20033;-40
2021/12/09 03:20:50;;;;;;;66.60;22.70;;;;;;;;;;5035419;28;20308;-39
2021/12/09 03:23:15;;;;;;;65.75;23.45;;;;;;;;;;5036115;28;20076;-40
2021/12/09 03:25:41;;;;;;;60.83;22.65;;;;;;;;;;5036069;28;20380;-39
2021/12/09 03:28:06;;;;;;;68.43;23.48;;;;;;;;;;5035455;28;20028;-41
2021/12/09 03:30:32;;;;;;;68.70;22.20;;;;;;;;;;5035977;28;20025;-40
2021/12/09 03:32:57;;;;;;;71.00;24.10;;;;;;;;;;5035543;28;20112;-39
2021/12/09 03:35:22;;;;;;;68.90;23.50;;;;;;;;;;5035522;28;20022;-39
2021/12/09 03:37:48;;;;;;;73.43;23.80;;;;;;;;;;5035663;28;20021;-39
2021/12/09 03:40:14;;;;;;;80.10;23.13;;;;;;;;;;5035770;28;20488;-39
2021/12/09 03:42:40;;;;;;;74.40;23.77;;;;;;;;;;5035331;28;20030;-42
2021/12/09 03:45:06;;;;;;;67.22;23.50;;;;;;;;;;5035333;28;20028;-40
2021/12/09 03:47:32;;;;;;;65.03;23.58;;;;;;;;;;5034919;28;20021;-40
2021/12/09 03:49:58;;;;;;;65.03;22.55;;;;;;;;;;5033985;28;20111;-41
2021/12/09 03:52:24;;;;;;;61.90;22.85;;;;;;;;;;5035280;28;20031;-40
2021/12/09 03:54:50;;;;;;;69.38;24.23;;;;;;;;;;5035312;28;20197;-40
2021/12/09 03:57:15;;;;;;;78.20;25.70;;;;;;;;;;5035001;28;20543;-40
2021/12/09 03:59:41;;;;;;;69.13;24.40;;;;;;;;;;5035115;28;20029;-39
2021/12/09 04:02:07;;;;;;;77.93;24.35;;;;;;;;;;5034997;28;20477;-39
2021/12/09 04:04:32;;;;;;;69.93;25.30;;;;;;;;;;5034906;28;20060;-39
2021/12/09 04:06:57;;;;;;;63.38;22.95;;;;;;;;;;5034204;28;20025;-40
2021/12/09 04:09:23;;;;;;;74.05;25.83;;;;;;;;;;5035199;28;20357;-39
2021/12/09 04:11:52;;;;;;;73.35;26.98;;;;;;;;;;5035027;28;20040;-39
2021/12/09 04:14:18;;;;;;;68.70;25.05;;;;;;;;;;5033582;28;20060;-40
2021/12/09 04:16:44;;;;;;;67.85;26.60;;;;;;;;;;5034938;28;20128;-39
2021/12/09 04:19:10;;;;;;;65.93;24.17;;;;;;;;;;5034656;28;20022;-39
2021/12/09 04:21:36;;;;;;;66.75;21.88;;;;;;;;;;5034724;28;20017;-39
2021/12/09 04:24:07;;;;;;;67.50;23.83;;;;;;;;;;5034646;28;20044;-40
2021/12/09 04:26:33;;;;;;;63.47;24.50;;;;;;;;;;5034851;28;20029;-40
2021/12/09 04:28:58;;;;;;;60.55;23.48;;;;;;;;;;5034843;28;20033;-44
2021/12/09 04:31:23;;;;;;;63.88;23.02;;;;;;;;;;5034528;28;20025;-40
2021/12/09 04:33:48;;;;;;;62.22;23.17;;;;;;;;;;5034859;28;20022;-41
2021/12/09 04:36:14;;;;;;;65.95;23.17;;;;;;;;;;5034078;28;20021;-40
2021/12/09 04:38:39;;;;;;;64.43;22.77;;;;;;;;;;5034114;28;20031;-40
2021/12/09 04:41:05;;;;;;;63.70;24.00;;;;;;;;;;5034656;28;20357;-40
2021/12/09 04:43:30;;;;;;;67.55;25.30;;;;;;;;;;5033730;28;20037;-40
2021/12/09 04:45:59;;;;;;;69.30;25.55;;;;;;;;;;5034394;28;20456;-40
2021/12/09 04:48:24;;;;;;;68.28;26.00;;;;;;;;;;5034261;28;20384;-39
2021/12/09 04:50:50;;;;;;;66.22;27.42;;;;;;;;;;5034149;28;20029;-39
2021/12/09 04:53:15;;;;;;;72.82;26.50;;;;;;;;;;5034064;28;20043;-39
2021/12/09 04:55:40;;;;;;;71.35;26.92;;;;;;;;;;5033919;28;20030;-40
2021/12/09 04:58:07;;;;;;;69.05;27.33;;;;;;;;;;5033864;28;20061;-40
2021/12/09 05:00:36;;;;;;;61.70;25.40;;;;;;;;;;5033882;28;20025;-39
2021/12/09 05:05:32;;;;;;;72.30;27.77;;;;;;;;;;5033553;28;20049;-40
2021/12/09 05:07:57;;;;;;;;;;;;;;;;;;5034332;28;20029;-40
2021/12/09 05:10:22;;;;;;;63.92;25.88;;;;;;;;;;5033810;28;19905;-40
2021/12/09 05:12:48;;;;;;;59.88;25.83;;;;;;;;;;5033928;28;20061;-39
2021/12/09 05:15:13;;;;;;;62.47;25.75;;;;;;;;;;5033870;28;20472;-40
2021/12/09 05:17:38;;;;;;;61.75;24.40;;;;;;;;;;5034010;28;20029;-39
2021/12/09 05:20:05;;;;;;;59.03;24.88;;;;;;;;;;5033426;28;20067;-39
2021/12/09 05:22:31;;;;;;;54.30;22.92;;;;;;;;;;5033309;28;20021;-39
2021/12/09 05:24:56;;;;;;;58.80;24.23;;;;;;;;;;5033828;28;20022;-40
2021/12/09 05:27:22;;;;;;;55.95;21.60;;;;;;;;;;5033762;28;20021;-40
2021/12/09 05:30:02;;;;;;;58.03;24.30;;;;;;;;;;5033361;28;20036;-40
2021/12/09 05:32:28;;;;;;;55.25;23.08;;;;;;;;;;5033253;28;20061;-40
2021/12/09 05:34:53;;;;;;;59.72;22.67;;;;;;;;;;5033653;28;20530;-40
2021/12/09 05:37:19;;;;;;;60.03;23.92;;;;;;;;;;5033335;28;20021;-40
2021/12/09 05:39:45;;;;;;;57.88;24.42;;;;;;;;;;5033437;28;20028;-40
2021/12/09 05:42:11;;;;;;;52.05;22.88;;;;;;;;;;5033342;28;20014;-39
2021/12/09 05:44:37;;;;;;;57.90;24.40;;;;;;;;;;5032935;28;20048;-40
2021/12/09 05:47:05;;;;;;;56.67;24.52;;;;;;;;;;5033122;28;20017;-40
2021/12/09 05:49:30;;;;;;;55.78;24.17;;;;;;;;;;5033164;28;20021;-40
2021/12/09 05:51:56;;;;;;;56.80;22.50;;;;;;;;;;5033189;28;20103;-40
2021/12/09 05:54:21;;;;;;;62.65;25.05;;;;;;;;;;5033252;28;20399;-39
2021/12/09 05:56:46;;;;;;;57.00;24.63;;;;;;;;;;5032668;28;20522;-40
2021/12/09 05:59:12;;;;;;;57.85;25.45;;;;;;;;;;5032960;28;20049;-39
2021/12/09 06:01:38;;;;;;;68.65;26.30;;;;;;;;;;5033080;28;20514;-41
2021/12/09 06:04:04;;;;;;;59.58;25.05;;;;;;;;;;5032822;28;20397;-39
2021/12/09 06:06:29;;;;;;;63.78;25.48;;;;;;;;;;5032930;28;20029;-40
2021/12/09 06:08:55;;;;;;;63.45;26.20;;;;;;;;;;5032390;28;20152;-40
2021/12/09 06:11:20;;;;;;;60.92;24.15;;;;;;;;;;5032853;28;20357;-39
2021/12/09 06:13:47;;;;;;;62.10;25.35;;;;;;;;;;5032581;28;20022;-40
2021/12/09 06:16:13;;;;;;;59.17;25.65;;;;;;;;;;5032833;28;20013;-40
2021/12/09 06:18:38;;;;;;;63.85;27.55;;;;;;;;;;5032531;28;20025;-40
2021/12/09 06:21:04;;;;;;;68.18;29.60;;;;;;;;;;5031368;28;20025;-40
2021/12/09 06:23:30;;;;;;;62.17;26.52;;;;;;;;;;5032505;28;20036;-40
2021/12/09 06:25:55;;;;;;;61.47;26.02;;;;;;;;;;5032862;28;20052;-40
2021/12/09 06:28:21;;;;;;;61.53;26.00;;;;;;;;;;5032928;28;20021;-39
2021/12/09 06:30:47;;;;;;;66.43;27.08;;;;;;;;;;5032333;28;20458;-40
2021/12/09 06:33:12;;;;;;;65.50;26.27;;;;;;;;;;5032437;28;20028;-40
2021/12/09 06:35:38;;;;;;;61.97;26.27;;;;;;;;;;5032669;28;20025;-40
2021/12/09 06:38:05;;;;;;;66.60;28.13;;;;;;;;;;5041120;28;20472;-40
2021/12/09 06:40:30;;;;;;;60.00;25.55;;;;;;;;;;5045019;28;20464;-39
2021/12/09 06:42:56;;;;;;;59.80;25.02;;;;;;;;;;5037149;28;20028;-40
2021/12/09 06:45:22;;;;;;;59.28;26.33;;;;;;;;;;5036238;28;20025;-40
2021/12/09 06:47:48;;;;;;;58.65;27.65;;;;;;;;;;5034553;28;20043;-44
2021/12/09 06:50:14;;;;;;;59.75;24.75;;;;;;;;;;5045100;28;20106;-40
2021/12/09 06:52:40;;;;;;;54.78;25.63;;;;;;;;;;5037993;28;20024;-40
2021/12/09 06:55:07;;;;;;;64.72;26.63;;;;;;;;;;5031320;28;20022;-40
2021/12/09 06:57:32;;;;;;;63.97;26.45;;;;;;;;;;5045663;28;20408;-43
2021/12/09 06:59:57;;;;;;;64.40;28.58;;;;;;;;;;5035414;28;20029;-41
2021/12/09 07:02:23;;;;;;;63.42;25.70;;;;;;;;;;5037709;28;20059;-40
2021/12/09 07:04:48;;;;;;;57.67;24.80;;;;;;;;;;5042957;28;20033;-41
2021/12/09 07:07:13;;;;;;;60.45;26.02;;;;;;;;;;5068419;28;20027;-40
2021/12/09 07:09:39;;;;;;;63.80;27.35;;;;;;;;;;5059377;28;20028;-40
2021/12/09 07:12:05;;;;;;;67.03;28.45;;;;;;;;;;5033529;28;20063;-40
2021/12/09 07:14:30;;;;;;;60.17;25.67;;;;;;;;;;5035729;28;20052;-40
2021/12/09 07:16:56;;;;;;;62.72;27.77;;;;;;;;;;5034378;28;20492;-42
2021/12/09 07:19:21;;;;;;;60.80;26.48;;;;;;;;;;5025626;28;20412;-40
2021/12/09 07:21:47;;;;;;;58.05;25.45;;;;;;;;;;5037972;28;20016;-40
2021/12/09 07:24:12;;;;;;;58.42;25.38;;;;;;;;;;5045315;28;20041;-40
2021/12/09 07:26:38;;;;;;;60.97;25.70;;;;;;;;;;5039576;28;20029;-44
2021/12/09 07:29:04;;;;;;;64.03;26.40;;;;;;;;;;5043268;28;20102;-43
2021/12/09 07:31:30;;;;;;;58.88;24.80;;;;;;;;;;5040485;28;20027;-40
2021/12/09 07:33:56;;;;;;;60.30;25.30;;;;;;;;;;5034164;28;20104;-40
2021/12/09 07:36:22;;;;;;;68.25;25.65;;;;;;;;;;5031620;28;20049;-41
2021/12/09 07:38:48;;;;;;;71.32;27.65;;;;;;;;;;5033274;28;20048;-41
2021/12/09 07:41:14;;;;;;;62.60;26.23;;;;;;;;;;5037615;28;20052;-40
2021/12/09 07:43:39;;;;;;;62.03;26.63;;;;;;;;;;5032290;28;20357;-40
2021/12/09 07:46:05;;;;;;;65.60;27.48;;;;;;;;;;5034373;28;20024;-44
2021/12/09 07:48:30;;;;;;;58.88;25.30;;;;;;;;;;5039256;28;20025;-39
2021/12/09 07:50:56;;;;;;;59.03;24.80;;;;;;;;;;5034790;28;20033;-40
2021/12/09 07:53:22;;;;;;;60.80;25.42;;;;;;;;;;5041446;28;20483;-40
2021/12/09 07:55:48;;;;;;;60.38;26.55;;;;;;;;;;5039483;28;20654;-43
2021/12/09 07:58:13;;;;;;;65.55;26.90;;;;;;;;;;5041288;28;20617;-40
2021/12/09 08:00:38;;;;;;;59.60;25.92;;;;;;;;;;5034314;28;20072;-41
2021/12/09 08:03:05;;;;;;;68.28;26.90;;;;;;;;;;5037101;28;20036;-40
2021/12/09 08:05:32;;;;;;;56.40;25.92;;;;;;;;;;5050646;28;20025;-40
2021/12/09 08:07:57;;;;;;;56.10;23.95;;;;;;;;;;5041715;28;20389;-43
2021/12/09 08:10:23;;;;;;;56.85;25.25;;;;;;;;;;5039478;28;20025;-40
2021/12/09 08:12:49;;;;;;;54.08;24.10;;;;;;;;;;5037372;28;20025;-44
2021/12/09 08:15:16;;;;;;;54.00;22.70;;;;;;;;;;5042543;28;20032;-41
2021/12/09 08:20:14;;;;;;;55.15;24.77;;;;;;;;;;5033499;28;20080;-42
2021/12/09 08:22:40;;;;;;;53.30;25.38;;;;;;;;;;5032366;28;20112;-41
2021/12/09 08:25:07;;;;;;;51.13;23.92;;;;;;;;;;5041707;28;20080;-40
2021/12/09 08:27:33;;;;;;;56.45;24.17;;;;;;;;;;5032037;28;20042;-41
2021/12/09 08:30:01;;;;;;;54.47;24.35;;;;;;;;;;5040110;28;20388;-40
2021/12/09 08:32:26;;;;;;;61.47;26.27;;;;;;;;;;5033140;28;20416;-40
2021/12/09 08:34:53;;;;;;;48.47;22.88;;;;;;;;;;5030884;28;20101;-40
2021/12/09 08:37:19;;;;;;;57.90;24.00;;;;;;;;;;5034596;28;20037;-43
2021/12/09 08:39:44;;;;;;;48.97;21.05;;;;;;;;;;5036396;28;20025;-40
2021/12/09 08:42:10;;;;;;;54.50;22.85;;;;;;;;;;5037519;28;20024;-40
2021/12/09 08:44:36;;;;;;;48.17;24.45;;;;;;;;;;5034894;28;20374;-40
2021/12/09 08:47:01;;;;;;;55.47;23.20;;;;;;;;;;5036997;28;20020;-45
2021/12/09 08:49:27;;;;;;;48.70;21.35;;;;;;;;;;5034632;28;20034;-40
2021/12/09 08:51:52;;;;;;;47.70;22.17;;;;;;;;;;5034547;28;20483;-41
2021/12/09 08:54:17;;;;;;;49.95;21.67;;;;;;;;;;5036534;28;20018;-40
2021/12/09 08:56:44;;;;;;;48.22;21.83;;;;;;;;;;5035768;28;20473;-43
2021/12/09 08:59:09;;;;;;;53.80;22.45;;;;;;;;;;5029807;28;20080;-41
2021/12/09 09:01:35;;;;;;;48.83;21.67;;;;;;;;;;5031641;28;20049;-40
2021/12/09 09:04:01;;;;;;;51.35;23.95;;;;;;;;;;5033988;28;20091;-47
2021/12/09 09:06:29;;;;;;;55.10;22.05;;;;;;;;;;5036643;28;20083;-42
2021/12/09 09:08:57;;;;;;;47.85;20.60;;;;;;;;;;5032517;28;20415;-40
2021/12/09 09:11:23;;;;;;;46.80;21.27;;;;;;;;;;5036219;28;20026;-50
2021/12/09 09:13:48;;;;;;;46.72;21.35;;;;;;;;;;5045571;28;20027;-43
2021/12/09 09:16:13;;;;;;;44.10;19.88;;;;;;;;;;5048283;28;20056;-40
2021/12/09 09:18:39;;;;;;;45.97;19.48;;;;;;;;;;5039011;28;20025;-42
2021/12/09 09:21:04;;;;;;;44.45;20.10;;;;;;;;;;5034922;28;20052;-41
2021/12/09 09:23:29;;;;;;;44.92;20.75;;;;;;;;;;5037955;28;20499;-40
2021/12/09 09:25:55;;;;;;;40.20;19.15;;;;;;;;;;5041665;28;20024;-40
2021/12/09 09:28:20;;;;;;;49.03;20.05;;;;;;;;;;5035816;28;20029;-40
2021/12/09 09:30:53;;;;;;;47.03;20.20;;;;;;;;;;5037091;28;20032;-42
2021/12/09 09:33:19;;;;;;;49.72;22.55;;;;;;;;;;5035154;28;20033;-40
2021/12/09 09:35:44;;;;;;;45.35;20.30;;;;;;;;;;5044919;28;20104;-40
2021/12/09 09:38:10;;;;;;;46.08;20.23;;;;;;;;;;5040046;28;20543;-40
2021/12/09 09:40:49;;;;;;;41.15;19.13;;;;;;;;;;5031071;28;20024;-40
2021/12/09 09:43:30;;;;;;;43.08;18.95;;;;;;;;;;5030680;28;20049;-41
2021/12/09 09:45:57;;;;;;;45.75;20.00;;;;;;;;;;5033473;28;20025;-40
2021/12/09 09:48:23;;;;;;;45.90;19.67;;;;;;;;;;5035735;28;20032;-41
2021/12/09 09:50:49;;;;;;;46.92;20.55;;;;;;;;;;5030853;28;20021;-48
2021/12/09 09:53:15;;;;;;;47.45;21.00;;;;;;;;;;5028940;28;20010;-40
2021/12/09 09:55:41;;;;;;;48.30;21.08;;;;;;;;;;5047484;28;20026;-42
2021/12/09 09:58:07;;;;;;;42.28;19.23;;;;;;;;;;5035876;28;20054;-41
2021/12/09 10:00:32;;;;;;;48.33;20.90;;;;;;;;;;5035627;28;20468;-40
2021/12/09 10:02:59;;;;;;;40.20;18.55;;;;;;;;;;5038244;28;20048;-40
2021/12/09 10:05:33;;;;;;;40.97;19.33;;;;;;;;;;5040962;28;20027;-41
2021/12/09 10:07:58;;;;;;;40.60;19.27;;;;;;;;;;5049326;28;20388;-41
2021/12/09 10:10:23;;;;;;;47.45;20.50;;;;;;;;;;5050380;28;20028;-40
2021/12/09 10:12:55;;;;;;;35.78;18.60;;;;;;;;;;5031986;28;20029;-40
2021/12/09 10:15:33;;;;;;;44.17;18.67;;;;;;;;;;5032362;28;20017;-41
2021/12/09 10:17:58;;;;;;;48.60;20.58;;;;;;;;;;5032093;28;20076;-40
2021/12/09 10:20:40;;;;;;;45.03;20.30;;;;;;;;;;5031203;28;20025;-41
2021/12/09 10:23:20;;;;;;;40.28;18.70;;;;;;;;;;5031835;28;20090;-40
2021/12/09 10:25:46;;;;;;;46.65;20.92;;;;;;;;;;5032373;28;20026;-40
2021/12/09 10:28:22;;;;;;;48.65;21.30;;;;;;;;;;5032027;28;20021;-41
2021/12/09 10:31:08;;;;;;;42.45;19.95;;;;;;;;;;5032125;28;20100;-41
2021/12/09 10:33:59;;;;;;;42.15;18.95;;;;;;;;;;5036125;28;20024;-40
2021/12/09 10:36:39;;;;;;;45.08;18.55;;;;;;;;;;5034557;28;20120;-40
2021/12/09 10:39:20;;;;;;;37.83;18.95;;;;;;;;;;5037752;28;20128;-41
2021/12/09 10:41:45;;;;;;;42.50;19.92;;;;;;;;;;5031204;28;20029;-41
2021/12/09 10:44:11;;;;;;;41.67;18.65;;;;;;;;;;5034083;28;20132;-41
2021/12/09 10:46:48;;;;;;;45.75;21.35;;;;;;;;;;5032001;28;20041;-40
2021/12/09 10:49:14;;;;;;;46.05;20.15;;;;;;;;;;5030488;28;20025;-40
2021/12/09 10:51:45;;;;;;;47.38;21.38;;;;;;;;;;5040680;28;20432;-40
2021/12/09 10:54:10;;;;;;;50.10;20.52;;;;;;;;;;5043924;28;20022;-41
2021/12/09 10:56:35;;;;;;;49.28;21.45;;;;;;;;;;5030709;28;20032;-40
2021/12/09 10:59:02;;;;;;;47.22;22.02;;;;;;;;;;5033435;28;20473;-43
2021/12/09 11:01:28;;;;;;;43.75;21.33;;;;;;;;;;5035639;28;20032;-40
2021/12/09 11:03:54;;;;;;;47.70;20.85;;;;;;;;;;5042195;28;20033;-40
2021/12/09 11:06:34;;;;;;;44.42;20.20;;;;;;;;;;5038699;28;20022;-40
2021/12/09 11:09:01;;;;;;;47.35;21.05;;;;;;;;;;5034663;28;20025;-41
2021/12/09 11:11:37;;;;;;;51.55;23.90;;;;;;;;;;5033730;28;20102;-40
2021/12/09 11:14:12;;;;;;;44.28;20.52;;;;;;;;;;5037967;28;20017;-40
2021/12/09 11:16:49;;;;;;;48.88;21.15;;;;;;;;;;5035197;28;20052;-40
2021/12/09 11:19:26;;;;;;;46.42;21.70;;;;;;;;;;5033755;28;20049;-40
2021/12/09 11:21:56;;;;;;;53.92;21.45;;;;;;;;;;5035542;28;20060;-40
2021/12/09 11:24:23;;;;;;;51.30;22.77;;;;;;;;;;5040212;28;20038;-43
2021/12/09 11:27:00;;;;;;;50.72;23.25;;;;;;;;;;5043188;28;20018;-41
2021/12/09 11:29:39;;;;;;;51.47;22.98;;;;;;;;;;5044326;28;20029;-41
2021/12/09 11:32:13;;;;;;;46.65;21.33;;;;;;;;;;5042123;28;20037;-40
2021/12/09 11:34:47;;;;;;;47.75;21.77;;;;;;;;;;5036124;28;20044;-41
2021/12/09 11:39:48;;;;;;;52.10;22.42;;;;;;;;;;5034911;28;20021;-40
2021/12/09 11:42:18;;;;;;;50.97;21.35;;;;;;;;;;5038061;28;20048;-40
2021/12/09 11:44:44;;;;;;;49.72;21.42;;;;;;;;;;5034247;28;20033;-41
2021/12/09 11:47:11;;;;;;;47.45;21.27;;;;;;;;;;5040099;28;20090;-40
2021/12/09 11:49:36;;;;;;;48.92;20.75;;;;;;;;;;5038452;28;20017;-41
2021/12/09 11:52:02;;;;;;;49.47;21.35;;;;;;;;;;5047545;28;20022;-40
2021/12/09 11:54:27;;;;;;;48.88;21.88;;;;;;;;;;5039326;28;20095;-40
2021/12/09 12:11:16;;;;;;;46.25;22.42;;;;;;;;;;5035659;28;20035;-49
2021/12/09 12:16:56;;;;;;;44.45;20.77;;;;;;;;;;5040422;28;20032;-44
2021/12/09 12:19:43;;;;;;;45.03;21.05;;;;;;;;;;5035470;28;20026;-43
2021/12/09 12:22:41;;;;;;;46.75;21.70;;;;;;;;;;5041236;28;20025;-42
2021/12/09 12:25:25;;;;;;;43.40;21.63;;;;;;;;;;5039039;28;20455;-43
2021/12/09 12:28:14;;;;;;;50.25;22.63;;;;;;;;;;5042229;28;20090;-43
2021/12/09 12:31:18;;;;;;;50.85;23.65;;;;;;;;;;5035813;28;20076;-41
2021/12/09 12:33:52;;;;;;;48.05;21.05;;;;;;;;;;5035739;28;20056;-45
2021/12/09 12:36:52;;;;;;;45.78;20.00;;;;;;;;;;5032995;28;20060;-42
2021/12/09 12:39:14;;;;;;;49.25;22.15;;;;;;;;;;5036387;28;20040;-46
2021/12/09 12:42:00;;;;;;;45.97;21.30;;;;;;;;;;5036679;28;20029;-46
2021/12/09 12:44:25;;;;;;;46.67;22.00;;;;;;;;;;5035341;28;20041;-43
2021/12/09 12:47:00;;;;;;;43.22;20.35;;;;;;;;;;5035285;28;20025;-42
2021/12/09 12:49:33;;;;;;;47.42;22.23;;;;;;;;;;5032632;28;20551;-41
2021/12/09 12:52:06;;;;;;;43.78;19.85;;;;;;;;;;5037986;28;20075;-40
2021/12/09 12:54:43;;;;;;;43.95;19.10;;;;;;;;;;5035649;28;20425;-41
2021/12/09 12:57:16;;;;;;;42.47;20.80;;;;;;;;;;5031971;28;20029;-41
2021/12/09 12:59:43;;;;;;;49.88;21.55;;;;;;;;;;5041685;28;20025;-41
2021/12/09 13:02:46;;;;;;;42.55;21.85;;;;;;;;;;5037327;28;20036;-40
2021/12/09 13:05:24;;;;;;;42.10;21.08;;;;;;;;;;5038209;28;20040;-48
2021/12/09 13:10:21;;;;;;;40.58;21.25;;;;;;;;;;5035932;28;20032;-43
2021/12/09 13:12:58;;;;;;;47.25;21.23;;;;;;;;;;5034552;28;20472;-42
2021/12/09 13:15:29;;;;;;;44.83;20.40;;;;;;;;;;5040098;28;20060;-42
2021/12/09 13:18:02;;;;;;;40.40;20.35;;;;;;;;;;5045180;28;20059;-41
2021/12/09 13:20:32;;;;;;;42.63;19.40;;;;;;;;;;5044968;28;20094;-43
2021/12/09 13:23:20;;;;;;;46.97;23.60;;;;;;;;;;5030332;28;20029;-43
2021/12/09 13:26:03;;;;;;;52.17;23.70;;;;;;;;;;5033734;28;20025;-40
2021/12/09 13:28:37;;;;;;;51.58;24.13;;;;;;;;;;5031485;28;20029;-44
2021/12/09 13:31:12;;;;;;;50.03;22.08;;;;;;;;;;5036038;28;20603;-41
2021/12/09 13:33:58;;;;;;;47.92;22.52;;;;;;;;;;5042638;28;20068;-40
2021/12/09 13:36:48;;;;;;;43.40;21.27;;;;;;;;;;5038975;28;20038;-40
2021/12/09 13:39:25;;;;;;;46.78;23.13;;;;;;;;;;5034264;28;20024;-41
2021/12/09 13:47:38;;;;;;;46.60;22.73;;;;;;;;;;5036819;28;20044;-42
2021/12/09 13:55:29;;;;;;;51.20;24.75;;;;;;;;;;5041517;28;20021;-43
2021/12/09 13:57:57;;;;;;;48.00;22.85;;;;;;;;;;5034895;28;20068;-42
2021/12/09 14:00:26;;;;;;;52.50;24.60;;;;;;;;;;5042400;28;20087;-44
2021/12/09 14:02:55;;;;;;;51.50;23.77;;;;;;;;;;5039484;28;20078;-41
2021/12/09 14:05:21;;;;;;;54.20;24.60;;;;;;;;;;5037865;28;20021;-42
2021/12/09 14:07:59;;;;;;;56.42;25.15;;;;;;;;;;5035228;28;20083;-41
2021/12/09 14:10:28;;;;;;;51.83;23.45;;;;;;;;;;5030353;28;20072;-42
2021/12/09 14:13:03;;;;;;;;;;;;;;;;;;5036505;28;20388;-42
2021/12/09 14:15:36;;;;;;;59.80;24.85;;;;;;;;;;5038578;28;19912;-44
2021/12/09 14:18:07;;;;;;;51.85;24.08;;;;;;;;;;5035674;28;20549;-48
2021/12/09 14:20:33;;;;;;;52.20;25.80;;;;;;;;;;5037613;28;20028;-48
2021/12/09 14:22:58;;;;;;;57.30;27.00;;;;;;;;;;5036617;28;20029;-47
2021/12/09 14:25:25;;;;;;;51.45;24.15;;;;;;;;;;5038195;28;20025;-43
2021/12/09 14:27:54;;;;;;;55.10;25.00;;;;;;;;;;5037324;28;20492;-42
2021/12/09 14:30:23;;;;;;;55.38;25.73;;;;;;;;;;5031393;28;20044;-41
2021/12/09 14:32:50;;;;;;;60.65;25.45;;;;;;;;;;5031353;28;20024;-41
2021/12/09 14:35:31;;;;;;;56.08;26.77;;;;;;;;;;5034763;28;20037;-43
2021/12/09 14:37:57;;;;;;;66.35;25.38;;;;;;;;;;5054127;28;20024;-41
2021/12/09 14:40:26;;;;;;;60.38;26.00;;;;;;;;;;5055053;28;20087;-44
2021/12/09 14:42:52;;;;;;;;;;;;;;;;;;5053134;28;20016;-42
2021/12/09 14:45:18;;;;;;;62.47;21.83;;;;;;;;;;5035292;28;19905;-38
2021/12/09 14:48:12;;;;;;;62.53;24.17;;;;;;;;;;5049497;28;20052;-38
2021/12/09 14:50:39;;;;;;;57.67;27.27;;;;;;;;;;5035654;28;20048;-37
2021/12/09 14:53:04;;;;;;;57.63;23.98;;;;;;;;;;5039445;28;20053;-41
2021/12/09 14:55:31;;;;;;;53.95;26.45;;;;;;;;;;5039905;28;20061;-44
2021/12/09 14:58:00;;;;;;;54.13;25.55;;;;;;;;;;5043481;28;20447;-44
2021/12/09 15:00:55;;;;;;;49.72;24.05;;;;;;;;;;5040777;28;20408;-47
2021/12/09 15:03:42;;;;;;;48.70;25.63;;;;;;;;;;5048990;28;20124;-43